Time;durP1;ratioP1;P1;durP2;ratioP2;P2;SDS_P1;SDS_P2;PMS_P1;PMS_P2;Temp;Humidity;BMP_temperature;BMP_pressure;BME280_temperature;BME280_humidity;BME280_pressure;Samples;Min_cycle;Max_cycle;Signal;HPM_P1;HPM_P2
2022/01/24 00:01:59;;;;;;;17.07;15.60;;;;;;;21.73;22.87;95605.22;7272137;19;138266;-55
2022/01/24 00:04:25;;;;;;;16.27;14.97;;;;;;;21.72;23.69;95601.75;7284050;19;137207;-55
2022/01/24 00:06:51;;;;;;;16.83;15.33;;;;;;;21.70;23.43;95609.22;7279495;19;138978;-56
2022/01/24 00:09:17;;;;;;;14.50;13.40;;;;;;;21.69;23.56;95610.31;7285034;19;137524;-55
2022/01/24 00:27:42;;;;;;;16.60;15.30;;;;;;;21.70;23.48;95621.72;7279980;19;137531;-55
2022/01/24 00:30:08;;;;;;;17.90;16.40;;;;;;;21.68;23.06;95624.69;7285483;19;137556;-56
2022/01/24 00:32:34;;;;;;;17.13;15.73;;;;;;;21.65;23.00;95617.25;7283781;19;137138;-55
2022/01/24 00:34:59;;;;;;;18.90;17.27;;;;;;;21.67;22.64;95627.59;7265864;19;137894;-55
2022/01/24 00:37:29;;;;;;;18.23;16.57;;;;;;;21.59;23.47;95616.50;7280569;19;137675;-55
2022/01/24 00:39:55;;;;;;;15.80;14.50;;;;;;;21.51;22.68;95603.06;7284903;19;137436;-55
2022/01/24 00:42:36;;;;;;;20.67;18.87;;;;;;;21.66;22.89;95629.47;7282790;19;137519;-55
2022/01/24 00:45:09;;;;;;;21.00;19.20;;;;;;;21.66;22.88;95632.13;7267155;19;137861;-55
2022/01/24 00:47:51;;;;;;;18.50;16.93;;;;;;;21.62;23.37;95623.91;7280844;19;138167;-55
2022/01/24 00:55:47;;;;;;;20.30;18.60;;;;;;;21.66;23.49;95637.44;7267164;19;137804;-54
2022/01/24 00:58:13;;;;;;;21.50;19.40;;;;;;;21.66;23.25;95642.75;7285094;19;137506;-55
2022/01/24 01:00:38;;;;;;;20.07;18.37;;;;;;;21.66;22.93;95634.78;7291315;19;137417;-56
2022/01/24 01:03:04;;;;;;;22.40;20.60;;;;;;;21.63;22.56;95632.69;7289018;19;138582;-56
2022/01/24 01:18:48;;;;;;;26.90;24.60;;;;;;;21.59;22.92;95621.81;7276672;19;137639;-55
2022/01/24 01:21:15;;;;;;;23.37;21.47;;;;;;;21.66;22.61;95628.66;7290129;19;137728;-56
2022/01/24 01:23:52;;;;;;;24.47;22.37;;;;;;;21.66;22.64;95620.69;7289215;19;138512;-55
2022/01/24 01:26:26;;;;;;;30.17;27.57;;;;;;;21.64;23.38;95626.28;7282236;19;137584;-55
2022/01/24 01:28:58;;;;;;;34.37;31.37;;;;;;;21.65;22.60;95624.44;7280821;19;138634;-56
2022/01/24 01:55:40;;;;;;;28.57;26.17;;;;;;;21.63;22.37;95624.72;7283370;19;137923;-55
2022/01/24 01:58:07;;;;;;;27.63;25.33;;;;;;;21.60;22.92;95620.75;7289071;19;137248;-55
2022/01/24 02:00:34;;;;;;;29.73;27.17;;;;;;;21.62;22.98;95623.91;7289721;19;137867;-54
2022/01/24 02:03:00;;;;;;;26.77;24.57;;;;;;;21.57;23.01;95612.56;7274779;19;140829;-55
2022/01/24 02:05:26;;;;;;;25.50;23.47;;;;;;;21.60;22.69;95611.97;7286935;19;137107;-54
2022/01/24 02:07:53;;;;;;;24.90;22.80;;;;;;;21.63;22.97;95616.72;7285237;19;138034;-56
2022/01/24 02:10:21;;;;;;;25.73;23.53;;;;;;;21.57;22.42;95607.22;7285831;19;139675;-55
2022/01/24 02:12:48;;;;;;;26.23;23.73;;;;;;;21.59;22.90;95610.41;7286449;19;137417;-54
2022/01/24 02:15:20;;;;;;;26.10;24.00;;;;;;;21.61;23.08;95624.19;7274600;19;137866;-55
2022/01/24 02:23:01;;;;;;;23.43;21.50;;;;;;;21.60;22.35;95623.41;7288586;19;137022;-54
2022/01/24 02:25:29;;;;;;;23.70;21.70;;;;;;;21.59;22.48;95627.16;7271385;19;138754;-56
2022/01/24 02:28:01;;;;;;;25.73;23.60;;;;;;;21.60;22.71;95635.91;7285118;19;137793;-56
2022/01/24 02:30:56;;;;;;;25.57;23.47;;;;;;;21.59;22.23;95647.63;7289495;19;139123;-55
2022/01/24 02:33:22;;;;;;;27.57;25.07;;;;;;;21.61;22.73;95637.50;7287261;19;137648;-55
2022/01/24 02:35:48;;;;;;;25.17;23.13;;;;;;;21.55;22.49;95622.69;7266900;19;137429;-54
2022/01/24 02:38:27;;;;;;;28.93;26.33;;;;;;;21.59;22.31;95634.34;7287919;19;137482;-54
2022/01/24 02:49:07;;;;;;;25.87;23.87;;;;;;;21.56;22.83;95643.66;7288713;19;138495;-56
2022/01/24 02:51:50;;;;;;;29.33;26.87;;;;;;;21.59;22.52;95651.06;7285999;19;137801;-55
2022/01/24 02:54:26;;;;;;;27.27;25.07;;;;;;;21.54;22.84;95643.16;7285374;19;137292;-56
2022/01/24 02:56:52;;;;;;;29.10;26.70;;;;;;;21.57;22.29;95655.88;7275765;19;138221;-55
2022/01/24 02:59:18;;;;;;;27.10;24.80;;;;;;;21.59;22.37;95656.41;7280381;19;138197;-55
2022/01/24 03:01:45;;;;;;;26.27;24.07;;;;;;;21.60;22.35;95662.50;7286468;19;137773;-55
2022/01/24 03:04:11;;;;;;;31.17;28.57;;;;;;;21.56;22.84;95656.16;7286771;19;137545;-55
2022/01/24 03:06:37;;;;;;;30.77;28.23;;;;;;;21.56;22.94;95664.16;7281261;19;137230;-55
2022/01/24 03:09:04;;;;;;;27.93;25.53;;;;;;;21.58;22.20;95662.00;7273386;19;138637;-55
2022/01/24 03:11:51;;;;;;;27.80;25.27;;;;;;;21.59;22.44;95671.56;7286956;19;137850;-56
2022/01/24 03:14:16;;;;;;;32.87;30.03;;;;;;;21.57;22.67;95677.16;7286443;19;138560;-56
2022/01/24 03:16:41;;;;;;;28.53;26.10;;;;;;;21.58;22.70;95672.63;7279981;19;137684;-56
2022/01/24 03:19:07;;;;;;;31.90;29.20;;;;;;;21.55;22.15;95674.00;7274562;19;138150;-55
2022/01/24 03:21:33;;;;;;;31.23;28.37;;;;;;;21.58;22.70;95677.94;7286337;19;138255;-55
2022/01/24 03:23:58;;;;;;;27.33;25.03;;;;;;;21.57;22.73;95682.47;7285312;19;137490;-55
2022/01/24 03:26:24;;;;;;;27.87;25.57;;;;;;;21.58;22.59;95684.06;7281183;19;140040;-55
2022/01/24 03:28:49;;;;;;;31.20;28.60;;;;;;;21.58;22.57;95692.03;7286269;19;137812;-55
2022/01/24 03:31:15;;;;;;;26.93;24.57;;;;;;;21.55;22.36;95683.84;7271356;19;137790;-55
2022/01/24 03:33:40;;;;;;;29.67;27.10;;;;;;;21.61;22.68;95694.13;7286117;19;137083;-55
2022/01/24 03:36:06;;;;;;;30.10;27.50;;;;;;;21.63;22.27;95697.31;7278174;19;140417;-55
2022/01/24 03:38:32;;;;;;;27.50;25.20;;;;;;;21.64;22.08;95698.09;7284029;19;137867;-55
2022/01/24 03:40:57;;;;;;;27.27;24.97;;;;;;;21.61;22.40;95704.75;7281335;19;138048;-54
2022/01/24 03:43:23;;;;;;;26.70;24.47;;;;;;;21.65;22.63;95714.84;7279564;19;137045;-56
2022/01/24 03:46:09;;;;;;;26.47;24.27;;;;;;;21.65;22.44;95714.84;7278763;19;137835;-55
2022/01/24 03:48:40;;;;;;;28.63;26.33;;;;;;;21.66;22.69;95729.72;7285612;19;137398;-55
2022/01/24 03:51:06;;;;;;;26.03;23.93;;;;;;;21.63;22.37;95723.09;7286063;19;137809;-56
2022/01/24 03:53:33;;;;;;;24.97;22.97;;;;;;;21.67;22.15;95724.16;7271858;19;138764;-57
2022/01/24 03:55:58;;;;;;;28.20;25.80;;;;;;;21.60;22.38;95719.13;7277228;19;137895;-57
2022/01/24 03:58:24;;;;;;;25.27;23.17;;;;;;;21.61;22.36;95723.38;7285212;19;138201;-55
2022/01/24 04:00:49;;;;;;;25.73;23.63;;;;;;;21.68;22.32;95741.69;7284490;19;137710;-55
2022/01/24 04:03:15;;;;;;;24.10;22.07;;;;;;;21.44;22.62;95709.69;7271816;19;137528;-55
2022/01/24 04:05:41;;;;;;;21.53;19.73;;;;;;;21.72;22.27;95741.91;7281729;19;138149;-56
2022/01/24 04:08:08;;;;;;;20.80;19.10;;;;;;;21.72;23.13;95740.06;7282304;19;138773;-56
2022/01/24 04:10:45;;;;;;;18.97;17.37;;;;;;;21.74;22.75;95740.56;7284971;19;137330;-56
2022/01/24 04:18:54;;;;;;;16.17;14.87;;;;;;;22.05;22.30;95754.41;7287310;19;137494;-57
2022/01/24 04:21:36;;;;;;;17.37;15.80;;;;;;;22.14;22.06;95758.03;7289094;19;137590;-56
2022/01/24 04:24:13;;;;;;;16.10;14.70;;;;;;;22.25;22.00;95752.63;7290325;19;136831;-56
2022/01/24 04:26:39;;;;;;;15.20;13.90;;;;;;;22.33;22.18;95762.63;7278222;19;140495;-56
2022/01/24 04:29:07;;;;;;;15.53;14.03;;;;;;;22.14;21.76;95725.31;7293220;19;137963;-57
2022/01/24 04:31:33;;;;;;;14.13;13.03;;;;;;;22.42;22.08;95758.28;7292700;19;137657;-57
2022/01/24 04:33:59;;;;;;;15.27;13.97;;;;;;;22.47;21.96;95760.88;7297908;19;136988;-58
2022/01/24 04:36:25;;;;;;;14.83;13.60;;;;;;;22.46;22.02;95752.09;7286057;19;137552;-58
2022/01/24 04:38:52;;;;;;;14.50;13.20;;;;;;;22.57;21.90;95762.66;7299161;19;138346;-58
2022/01/24 04:41:25;;;;;;;13.40;12.20;;;;;;;22.59;22.25;95766.59;7299849;19;137101;-56
2022/01/24 04:52:50;;;;;;;14.10;12.70;;;;;;;22.28;22.94;95779.44;7297090;19;137280;-56
2022/01/24 04:54:44;;;;;;;12.97;11.80;;;;;;;22.25;23.48;95790.66;7294592;19;136851;-57
2022/01/24 04:57:20;;;;;;;12.40;11.30;;;;;;;22.23;23.22;95781.38;7299865;19;136922;-56
2022/01/24 04:59:47;;;;;;;13.90;12.53;;;;;;;22.21;23.09;95782.47;7285246;19;137500;-57
2022/01/24 05:02:14;;;;;;;14.17;12.77;;;;;;;22.24;24.97;95801.59;7297518;19;137185;-57
2022/01/24 05:04:40;;;;;;;15.80;14.40;;;;;;;22.11;23.93;95797.72;7298336;19;137317;-57
2022/01/24 05:07:06;;;;;;;15.00;13.80;;;;;;;22.34;22.53;95799.66;7299038;19;137113;-57
2022/01/24 05:09:39;;;;;;;14.40;13.13;;;;;;;22.50;22.39;95803.69;7285008;19;137338;-56
2022/01/24 05:12:20;;;;;;;12.90;11.90;;;;;;;22.59;22.39;95805.75;7296949;19;137852;-55
2022/01/24 05:21:30;;;;;;;13.33;12.23;;;;;;;22.47;23.04;95809.59;7298054;19;136814;-56
2022/01/24 05:25:52;;;;;;;12.73;11.37;;;;;;;22.28;23.12;95824.72;7299013;19;137208;-55
2022/01/24 05:28:18;;;;;;;12.33;11.23;;;;;;;22.31;22.72;95839.31;7297060;19;138556;-56
2022/01/24 05:30:43;;;;;;;13.43;12.30;;;;;;;22.29;23.30;95844.13;7298034;19;137322;-55
2022/01/24 05:33:09;;;;;;;12.97;11.23;;;;;;;22.15;23.00;95834.13;7286087;19;137706;-54
2022/01/24 05:35:35;;;;;;;12.90;11.70;;;;;;;22.17;23.16;95837.34;7292364;19;136960;-55
2022/01/24 05:38:00;;;;;;;12.80;11.70;;;;;;;22.22;22.91;95863.09;7293077;19;137684;-55
2022/01/24 05:40:26;;;;;;;13.10;12.00;;;;;;;22.17;22.90;95860.47;7293765;19;138164;-55
2022/01/24 05:42:51;;;;;;;12.13;11.13;;;;;;;22.21;22.56;95867.63;7280202;19;137384;-55
2022/01/24 05:45:17;;;;;;;13.57;12.37;;;;;;;22.20;22.49;95865.25;7290511;19;137212;-56
2022/01/24 05:47:43;;;;;;;12.50;11.50;;;;;;;22.20;22.51;95867.91;7293496;19;138204;-55
2022/01/24 05:50:08;;;;;;;13.40;12.30;;;;;;;22.17;22.41;95871.13;7295834;19;137518;-55
2022/01/24 05:52:34;;;;;;;13.90;12.80;;;;;;;22.17;22.85;95871.13;7295142;19;136961;-56
2022/01/24 05:55:00;;;;;;;13.43;12.30;;;;;;;22.17;22.77;95881.75;7284003;19;137491;-56
2022/01/24 05:57:25;;;;;;;14.17;12.87;;;;;;;22.16;22.91;95880.16;7297939;19;137539;-55
2022/01/24 05:59:51;;;;;;;13.70;12.47;;;;;;;22.16;22.91;95885.50;7296850;19;137079;-57
2022/01/24 06:02:17;;;;;;;13.67;12.50;;;;;;;22.14;22.91;95882.31;7298250;19;137235;-56
2022/01/24 06:04:42;;;;;;;14.03;12.83;;;;;;;22.17;22.75;95897.72;7283610;19;136972;-55
2022/01/24 06:07:08;;;;;;;14.40;13.20;;;;;;;22.16;22.77;95909.44;7297101;19;136933;-55
2022/01/24 06:09:33;;;;;;;16.73;15.33;;;;;;;22.17;22.44;95913.69;7297426;19;137305;-56
2022/01/24 06:12:00;;;;;;;17.10;15.60;;;;;;;22.16;22.29;95918.22;7297854;19;137447;-57
2022/01/24 06:14:25;;;;;;;18.90;17.20;;;;;;;22.18;22.64;95923.31;7296583;19;136930;-56
2022/01/24 06:16:50;;;;;;;18.70;17.10;;;;;;;22.16;22.17;95923.56;7282800;19;137262;-57
2022/01/24 06:19:16;;;;;;;19.50;17.70;;;;;;;22.16;22.08;95925.41;7297126;19;137618;-56
2022/01/24 06:21:44;;;;;;;18.57;16.97;;;;;;;22.16;22.16;95928.88;7296405;19;136739;-57
2022/01/24 06:24:10;;;;;;;20.03;18.23;;;;;;;22.14;21.82;95920.38;7297176;19;137784;-57
2022/01/24 06:26:36;;;;;;;19.17;17.47;;;;;;;22.16;22.15;95936.06;7283531;19;138042;-57
2022/01/24 06:29:02;;;;;;;19.00;17.20;;;;;;;22.15;21.83;95934.47;7296176;19;137252;-57
2022/01/24 06:31:27;;;;;;;19.40;17.70;;;;;;;22.15;22.47;95932.59;7296779;19;137313;-58
2022/01/24 06:33:53;;;;;;;17.77;16.27;;;;;;;22.14;21.99;95927.56;7296597;19;136931;-58
2022/01/24 06:36:19;;;;;;;18.23;16.63;;;;;;;22.15;22.18;95937.13;7293998;19;136847;-57
2022/01/24 06:38:44;;;;;;;17.80;16.30;;;;;;;22.15;22.26;95945.13;7283006;19;137229;-58
2022/01/24 06:41:10;;;;;;;17.27;15.80;;;;;;;22.15;21.98;95948.56;7297397;19;136895;-57
2022/01/24 06:43:35;;;;;;;17.20;15.80;;;;;;;22.15;22.01;95945.13;7296755;19;137612;-55
2022/01/24 06:46:01;;;;;;;15.87;14.47;;;;;;;22.17;21.71;95946.47;7296266;19;137300;-58
2022/01/24 06:48:27;;;;;;;16.90;15.47;;;;;;;22.17;21.80;95945.63;7284632;19;140687;-56
2022/01/24 06:50:53;;;;;;;15.97;14.67;;;;;;;22.16;22.04;95946.72;7294643;19;137280;-55
2022/01/24 06:53:18;;;;;;;16.57;15.07;;;;;;;22.17;21.90;95954.44;7293642;19;136819;-57
2022/01/24 06:55:44;;;;;;;15.30;13.90;;;;;;;22.17;22.33;95957.09;7292594;19;137302;-56
2022/01/24 06:58:10;;;;;;;15.63;14.13;;;;;;;22.18;22.31;95952.56;7295149;19;137327;-57
2022/01/24 07:00:35;;;;;;;15.10;13.80;;;;;;;22.19;22.51;95954.16;7281761;19;137593;-55
2022/01/24 07:03:02;;;;;;;16.10;14.80;;;;;;;22.18;21.92;95958.69;7295872;19;136990;-56
2022/01/24 07:05:28;;;;;;;14.53;13.33;;;;;;;22.23;21.69;95959.72;7295499;19;138044;-56
2022/01/24 07:07:56;;;;;;;14.40;13.20;;;;;;;22.21;22.23;95960.00;7293485;19;138496;-55
2022/01/24 07:10:27;;;;;;;13.93;12.83;;;;;;;22.21;22.03;95968.78;7284974;19;138724;-55
2022/01/24 07:12:53;;;;;;;13.87;12.70;;;;;;;22.26;21.54;95970.59;7294272;19;137018;-55
2022/01/24 07:15:21;;;;;;;12.97;11.77;;;;;;;22.25;21.97;95974.34;7294865;19;137082;-56
2022/01/24 07:20:35;;;;;;;12.20;11.20;;;;;;;22.23;21.63;95973.81;7293028;19;137389;-56
2022/01/24 07:23:03;;;;;;;14.70;13.50;;;;;;;22.24;21.89;95979.94;7282245;19;136918;-57
2022/01/24 07:25:29;;;;;;;12.47;11.53;;;;;;;22.19;22.23;95972.81;7295514;19;137297;-56
2022/01/24 07:27:54;;;;;;;13.73;12.53;;;;;;;22.26;21.97;95985.78;7294075;19;137502;-56
2022/01/24 07:30:20;;;;;;;15.40;13.90;;;;;;;22.24;22.21;95982.59;7293968;19;137157;-56
2022/01/24 07:32:45;;;;;;;14.00;12.80;;;;;;;22.29;21.67;95988.69;7281725;19;136880;-55
2022/01/24 07:35:11;;;;;;;15.67;14.37;;;;;;;22.36;21.98;95996.38;7293670;19;137030;-55
2022/01/24 07:37:37;;;;;;;15.97;14.67;;;;;;;22.42;22.49;96000.56;7294548;19;138942;-55
2022/01/24 07:40:06;;;;;;;15.17;13.77;;;;;;;22.41;21.99;95999.00;7292652;19;137144;-58
2022/01/24 07:45:16;;;;;;;20.23;18.53;;;;;;;22.21;22.14;95994.59;7282887;19;137992;-55
2022/01/24 07:47:41;;;;;;;16.23;14.83;;;;;;;22.26;21.89;96005.22;7294308;19;137483;-56
2022/01/24 07:50:08;;;;;;;17.07;15.60;;;;;;;22.28;22.36;96011.06;7294725;19;138372;-56
2022/01/24 07:52:34;;;;;;;19.40;17.60;;;;;;;22.28;21.78;96004.94;7292473;19;137030;-56
2022/01/24 07:55:00;;;;;;;20.10;18.30;;;;;;;22.17;22.23;96002.34;7277937;19;137990;-57
2022/01/24 07:57:26;;;;;;;29.43;26.93;;;;;;;22.24;22.25;96014.56;7293713;19;138045;-56
2022/01/24 07:59:51;;;;;;;19.53;17.67;;;;;;;22.29;22.30;96028.63;7294561;19;137499;-56
2022/01/24 08:02:17;;;;;;;19.67;17.87;;;;;;;22.20;21.96;96009.78;7294293;19;136899;-56
2022/01/24 08:04:42;;;;;;;19.40;17.70;;;;;;;22.31;22.28;96029.13;7293135;19;137562;-56
2022/01/24 08:07:07;;;;;;;21.27;19.47;;;;;;;22.31;22.27;96028.34;7278124;19;137533;-56
2022/01/24 08:09:33;;;;;;;21.20;19.50;;;;;;;22.33;21.68;96028.84;7293446;19;136947;-56
2022/01/24 08:11:59;;;;;;;21.73;19.83;;;;;;;22.34;21.72;96035.75;7293882;19;137334;-56
2022/01/24 08:14:24;;;;;;;23.70;21.60;;;;;;;22.33;22.18;96034.97;7293841;19;137769;-57
2022/01/24 08:16:50;;;;;;;23.10;21.07;;;;;;;22.36;21.65;96041.63;7279068;19;138628;-56
2022/01/24 08:19:15;;;;;;;22.50;20.60;;;;;;;22.38;21.84;96042.94;7292192;19;137734;-56
2022/01/24 08:21:43;;;;;;;25.83;23.63;;;;;;;22.40;22.00;96042.66;7294310;19;137183;-56
2022/01/24 08:24:08;;;;;;;26.30;24.10;;;;;;;22.35;21.98;96043.50;7293576;19;137937;-56
2022/01/24 08:26:35;;;;;;;23.57;21.57;;;;;;;22.41;21.81;96058.38;7292919;19;137478;-56
2022/01/24 08:29:00;;;;;;;23.87;21.77;;;;;;;22.45;22.03;96061.25;7278590;19;138446;-56
2022/01/24 08:31:26;;;;;;;25.47;23.30;;;;;;;22.40;21.44;96055.97;7293816;19;136839;-55
2022/01/24 08:33:51;;;;;;;27.17;24.70;;;;;;;22.37;22.01;96056.53;7293589;19;137492;-55
2022/01/24 08:36:17;;;;;;;26.07;23.87;;;;;;;22.43;21.88;96072.19;7291150;19;136902;-55
2022/01/24 08:38:46;;;;;;;25.77;23.47;;;;;;;22.44;21.95;96073.78;7279361;19;137400;-55
2022/01/24 08:41:19;;;;;;;23.40;21.40;;;;;;;22.45;21.62;96071.91;7293711;19;137568;-56
2022/01/24 08:46:13;;;;;;;22.17;20.27;;;;;;;22.48;22.18;96074.81;7293327;19;136863;-56
2022/01/24 08:48:38;;;;;;;21.60;19.70;;;;;;;22.52;21.90;96075.88;7292400;19;136792;-56
2022/01/24 08:51:05;;;;;;;21.30;19.50;;;;;;;22.54;21.60;96072.16;7278544;19;137813;-57
2022/01/24 08:53:31;;;;;;;21.60;19.80;;;;;;;22.57;21.64;96068.91;7293033;19;137754;-56
2022/01/24 08:56:01;;;;;;;20.47;18.87;;;;;;;22.63;21.64;96073.13;7290392;19;137754;-56
2022/01/24 08:58:27;;;;;;;20.17;18.50;;;;;;;22.62;21.78;96068.88;7291927;19;137979;-56
2022/01/24 09:00:53;;;;;;;20.97;19.10;;;;;;;22.64;22.06;96080.03;7279962;19;137837;-56
2022/01/24 09:03:19;;;;;;;21.33;19.60;;;;;;;22.63;21.95;96081.13;7292455;19;137205;-55
2022/01/24 09:05:47;;;;;;;20.10;18.50;;;;;;;22.56;21.82;96075.31;7290017;19;137337;-55
2022/01/24 09:08:14;;;;;;;22.70;20.60;;;;;;;22.54;22.28;96072.16;7291930;19;137624;-57
2022/01/24 09:10:40;;;;;;;20.17;18.47;;;;;;;22.59;21.92;96080.09;7292480;19;137538;-57
2022/01/24 09:13:07;;;;;;;20.03;18.40;;;;;;;22.58;21.80;96075.84;7277966;19;138031;-56
2022/01/24 09:15:32;;;;;;;19.37;17.73;;;;;;;22.59;21.90;96078.22;7291091;19;138179;-55
2022/01/24 09:17:58;;;;;;;19.33;17.80;;;;;;;22.57;21.72;96076.91;7291930;19;137516;-56
2022/01/24 09:20:24;;;;;;;19.43;17.83;;;;;;;22.52;21.52;96070.56;7297352;19;136875;-56
2022/01/24 09:22:49;;;;;;;19.00;17.43;;;;;;;22.59;21.84;96080.88;7286175;19;137030;-56
2022/01/24 09:25:17;;;;;;;18.90;17.20;;;;;;;22.54;22.20;96072.16;7298225;19;137409;-56
2022/01/24 09:27:45;;;;;;;18.80;17.20;;;;;;;22.58;22.23;96083.81;7297705;19;137060;-57
2022/01/24 09:30:12;;;;;;;19.20;17.60;;;;;;;22.55;22.18;96077.19;7299236;19;137793;-56
2022/01/24 09:32:37;;;;;;;20.27;18.57;;;;;;;22.51;22.02;96079.63;7298690;19;138129;-56
2022/01/24 09:35:05;;;;;;;19.80;18.03;;;;;;;22.49;21.99;96079.06;7282333;19;138111;-56
2022/01/24 09:37:31;;;;;;;18.70;17.30;;;;;;;22.57;22.29;96076.91;7298246;19;137039;-56
2022/01/24 09:39:56;;;;;;;20.17;18.37;;;;;;;22.58;21.99;96081.97;7298036;19;136960;-56
2022/01/24 09:42:22;;;;;;;24.23;22.20;;;;;;;22.48;22.23;96069.50;7297696;19;137185;-57
2022/01/24 09:44:48;;;;;;;25.47;23.37;;;;;;;22.51;22.39;96076.97;7284500;19;138115;-54
2022/01/24 09:47:16;;;;;;;26.70;24.40;;;;;;;22.58;21.92;96068.63;7297424;19;137190;-55
2022/01/24 09:49:43;;;;;;;28.23;26.00;;;;;;;22.58;22.44;96076.63;7297175;19;137253;-56
2022/01/24 09:52:08;;;;;;;29.10;26.70;;;;;;;22.64;22.45;96086.16;7297264;19;137617;-56
2022/01/24 09:54:34;;;;;;;27.27;24.93;;;;;;;22.66;22.56;96076.03;7297013;19;136867;-57
2022/01/24 09:57:00;;;;;;;30.47;27.97;;;;;;;22.62;22.14;96072.34;7281573;19;138726;-56
2022/01/24 09:59:26;;;;;;;26.80;24.67;;;;;;;22.61;22.52;96072.63;7297268;19;136911;-57
2022/01/24 10:01:51;;;;;;;26.30;24.10;;;;;;;22.63;22.48;96065.94;7298277;19;137182;-57
2022/01/24 10:04:32;;;;;;;30.17;27.77;;;;;;;22.63;22.17;96073.13;7296949;19;137326;-58
2022/01/24 10:07:12;;;;;;;28.37;26.07;;;;;;;22.61;22.05;96068.09;7283583;19;137509;-57
2022/01/24 10:09:51;;;;;;;28.37;26.03;;;;;;;22.67;22.07;96066.16;7297457;19;136840;-57
2022/01/24 10:17:36;;;;;;;32.00;29.40;;;;;;;22.64;21.83;96045.41;7285272;19;139001;-57
2022/01/24 10:20:25;;;;;;;31.10;28.50;;;;;;;22.54;22.28;96024.19;7297060;19;137569;-57
2022/01/24 10:23:05;;;;;;;31.90;29.37;;;;;;;22.75;21.67;96062.94;7297721;19;137328;-57
2022/01/24 10:25:31;;;;;;;31.57;29.00;;;;;;;22.79;21.72;96067.41;7296351;19;138263;-55
2022/01/24 10:28:04;;;;;;;35.93;33.03;;;;;;;22.81;21.65;96067.94;7297081;19;137219;-55
2022/01/24 10:30:32;;;;;;;34.00;31.20;;;;;;;22.81;22.00;96073.25;7281044;19;136958;-56
2022/01/24 10:33:00;;;;;;;34.03;31.23;;;;;;;22.82;22.08;96071.41;7295874;19;137139;-56
2022/01/24 10:35:44;;;;;;;35.10;32.10;;;;;;;22.74;21.58;96064.00;7295499;19;137635;-56
2022/01/24 10:38:38;;;;;;;32.73;29.97;;;;;;;22.69;22.13;96069.38;7296943;19;137701;-56
2022/01/24 10:41:19;;;;;;;31.33;28.80;;;;;;;22.65;21.79;96070.97;7281947;19;138029;-56
2022/01/24 10:43:46;;;;;;;32.07;29.33;;;;;;;22.62;21.69;96068.88;7296772;19;138115;-58
2022/01/24 10:46:12;;;;;;;32.23;29.63;;;;;;;22.62;21.91;96083.00;7294429;19;139009;-56
2022/01/24 10:48:40;;;;;;;33.60;30.83;;;;;;;22.60;22.10;96079.81;7295890;19;136960;-55
2022/01/24 10:51:17;;;;;;;37.20;34.10;;;;;;;22.58;21.96;96079.28;7282084;19;136940;-56
2022/01/24 10:53:45;;;;;;;37.60;34.60;;;;;;;22.59;21.85;96070.22;7296880;19;138213;-56
2022/01/24 10:56:34;;;;;;;38.60;35.33;;;;;;;22.59;21.82;96074.75;7294560;19;138226;-56
2022/01/24 10:59:14;;;;;;;37.80;34.63;;;;;;;22.61;21.98;96072.63;7296145;19;138590;-54
2022/01/24 11:01:42;;;;;;;38.37;35.10;;;;;;;22.62;21.75;96085.66;7283530;19;137749;-56
2022/01/24 11:04:13;;;;;;;38.83;35.77;;;;;;;22.63;21.90;96081.91;7294315;19;137711;-56
2022/01/24 11:06:41;;;;;;;38.23;35.03;;;;;;;22.62;21.44;96080.31;7295458;19;137659;-56
2022/01/24 11:09:15;;;;;;;37.70;34.70;;;;;;;22.62;22.08;96079.53;7296883;19;138192;-55
2022/01/24 11:11:42;;;;;;;39.20;36.07;;;;;;;22.62;21.75;96076.88;7294908;19;137112;-57
2022/01/24 11:14:10;;;;;;;34.70;31.90;;;;;;;22.56;21.78;96059.34;7281837;19;138196;-56
2022/01/24 11:16:39;;;;;;;37.07;34.07;;;;;;;22.63;22.05;96075.78;7292895;19;138269;-56
2022/01/24 11:19:12;;;;;;;36.00;32.93;;;;;;;22.63;21.44;96073.13;7295084;19;137886;-57
2022/01/24 11:21:38;;;;;;;35.03;32.13;;;;;;;22.63;21.82;96078.47;7294782;19;137582;-56
2022/01/24 11:24:07;;;;;;;32.87;30.07;;;;;;;22.60;21.94;96065.69;7281969;19;137486;-54
2022/01/24 11:26:34;;;;;;;33.27;30.57;;;;;;;22.55;21.61;96069.19;7294704;19;138733;-55
2022/01/24 11:29:00;;;;;;;31.00;28.50;;;;;;;22.62;21.42;96082.19;7295150;19;137053;-56
2022/01/24 11:31:43;;;;;;;30.80;28.27;;;;;;;22.58;21.63;96079.28;7294694;19;137606;-55
2022/01/24 11:34:19;;;;;;;26.13;23.93;;;;;;;22.61;21.98;96075.28;7294644;19;137754;-55
2022/01/24 11:36:45;;;;;;;23.67;21.77;;;;;;;22.62;21.53;96072.34;7280044;19;137337;-56
2022/01/24 11:39:11;;;;;;;23.03;21.23;;;;;;;22.63;21.83;96071.25;7294416;19;137161;-55
2022/01/24 11:41:39;;;;;;;24.50;22.40;;;;;;;22.66;22.25;96070.69;7294794;19;137202;-56
2022/01/24 11:44:09;;;;;;;25.60;23.50;;;;;;;22.67;22.13;96082.16;7294878;19;138293;-56
2022/01/24 11:49:17;;;;;;;23.70;21.80;;;;;;;22.64;21.64;96069.38;7296302;19;137646;-56
2022/01/24 11:51:46;;;;;;;22.47;20.57;;;;;;;22.64;21.56;96077.38;7293534;19;136888;-57
2022/01/24 11:55:00;;;;;;;23.17;21.27;;;;;;;22.63;22.03;96081.13;7293277;19;138244;-56
2022/01/24 11:57:36;;;;;;;25.00;23.00;;;;;;;22.63;22.08;96081.91;7274185;19;139131;-56
2022/01/24 12:00:05;;;;;;;28.53;26.13;;;;;;;22.64;21.80;96080.84;7290951;19;136945;-57
2022/01/24 12:02:39;;;;;;;28.90;26.53;;;;;;;22.64;21.62;96086.16;7292121;19;138100;-57
2022/01/24 12:05:13;;;;;;;27.80;25.50;;;;;;;22.63;21.40;96084.56;7294289;19;137326;-57
2022/01/24 12:07:44;;;;;;;27.27;25.00;;;;;;;22.60;21.24;96077.16;7283903;19;137376;-56
2022/01/24 12:13:04;;;;;;;27.53;25.33;;;;;;;22.58;21.79;96071.31;7293902;19;136824;-56
2022/01/24 12:15:38;;;;;;;26.30;24.20;;;;;;;22.63;21.22;96073.13;7293238;19;137595;-56
2022/01/24 12:18:26;;;;;;;25.90;23.80;;;;;;;22.57;21.67;96071.59;7292561;19;137574;-57
2022/01/24 12:21:01;;;;;;;27.47;25.27;;;;;;;22.62;21.92;96082.19;7279459;19;137630;-56
2022/01/24 12:23:48;;;;;;;29.23;26.90;;;;;;;22.61;21.88;96078.75;7293405;19;138095;-57
2022/01/24 12:26:13;;;;;;;28.13;25.93;;;;;;;22.62;21.62;96082.19;7294465;19;137274;-55
2022/01/24 12:28:42;;;;;;;28.53;25.80;;;;;;;22.61;21.56;96084.06;7294091;19;137008;-57
2022/01/24 12:31:26;;;;;;;28.70;26.30;;;;;;;22.60;21.56;96087.81;7278795;19;138505;-56
2022/01/24 12:33:54;;;;;;;29.07;26.67;;;;;;;22.59;21.66;96083.56;7293761;19;137160;-57
2022/01/24 12:36:47;;;;;;;29.27;26.80;;;;;;;22.59;21.71;96091.53;7292123;19;137086;-55
2022/01/24 12:39:13;;;;;;;31.67;29.07;;;;;;;22.60;21.63;96095.78;7292519;19;138087;-56
2022/01/24 12:41:44;;;;;;;32.77;29.97;;;;;;;22.61;21.17;96093.94;7279380;19;136996;-57
2022/01/24 12:46:35;;;;;;;32.27;29.60;;;;;;;22.61;21.46;96105.38;7291687;19;137423;-56
2022/01/24 12:49:04;;;;;;;31.63;29.00;;;;;;;22.61;21.57;96109.91;7292808;19;137526;-57
2022/01/24 12:51:33;;;;;;;33.97;31.07;;;;;;;22.58;21.40;96092.63;7291634;19;137099;-57
2022/01/24 12:53:58;;;;;;;34.90;31.90;;;;;;;22.50;21.66;96083.31;7279859;19;137453;-57
2022/01/24 12:56:27;;;;;;;34.27;31.40;;;;;;;22.60;20.94;96095.78;7298894;19;136993;-57
2022/01/24 12:58:53;;;;;;;35.50;32.50;;;;;;;22.54;21.17;96088.13;7299757;19;137302;-55
2022/01/24 13:01:33;;;;;;;35.70;32.73;;;;;;;22.60;21.10;96095.78;7298366;19;137874;-57
2022/01/24 13:04:08;;;;;;;37.77;34.57;;;;;;;22.61;21.19;96096.59;7285308;19;137032;-56
2022/01/24 13:06:36;;;;;;;35.07;32.17;;;;;;;22.60;21.07;96093.13;7298922;19;137463;-57
2022/01/24 13:09:13;;;;;;;35.50;32.60;;;;;;;22.63;20.72;96113.09;7299070;19;138528;-57
2022/01/24 13:11:57;;;;;;;35.40;32.40;;;;;;;22.62;20.79;96100.84;7299624;19;138482;-56
2022/01/24 13:25:27;;;;;;;36.83;33.70;;;;;;;22.58;20.96;96083.81;7287315;19;139776;-56